sensor_id;sensor_type;location;lat;lon;timestamp;pressure;altitude;pressure_sealevel;temperature;humidity
32456;BME280;18912;43.270;27.942;2023-04-01T00:02:17;97343.69;;;18.16;47.52
32456;BME280;18912;43.270;27.942;2023-04-01T00:04:43;97334.66;;;18.25;47.52
32456;BME280;18912;43.270;27.942;2023-04-01T00:07:09;97329.47;;;18.29;47.28
32456;BME280;18912;43.270;27.942;2023-04-01T00:09:34;97330.28;;;18.19;47.55
32456;BME280;18912;43.270;27.942;2023-04-01T00:12:00;97334.38;;;17.97;47.88
32456;BME280;18912;43.270;27.942;2023-04-01T00:14:26;97333.00;;;17.84;48.38
32456;BME280;18912;43.270;27.942;2023-04-01T00:16:52;97333.00;;;17.99;47.96
32456;BME280;18912;43.270;27.942;2023-04-01T00:19:17;97337.13;;;17.97;48.08
32456;BME280;18912;43.270;27.942;2023-04-01T00:21:43;97339.03;;;18.01;48.02
32456;BME280;18912;43.270;27.942;2023-04-01T00:24:09;97336.56;;;18.10;47.84
32456;BME280;18912;43.270;27.942;2023-04-01T00:26:34;97325.88;;;17.73;49.08
32456;BME280;18912;43.270;27.942;2023-04-01T00:29:00;97333.56;;;18.06;48.30
32456;BME280;18912;43.270;27.942;2023-04-01T00:31:26;97316.06;;;18.07;48.15
32456;BME280;18912;43.270;27.942;2023-04-01T00:33:52;97312.78;;;18.10;47.95
32456;BME280;18912;43.270;27.942;2023-04-01T00:36:20;97317.16;;;18.11;47.88
32456;BME280;18912;43.270;27.942;2023-04-01T00:38:46;97316.59;;;17.94;48.44
32456;BME280;18912;43.270;27.942;2023-04-01T00:41:13;97322.88;;;17.74;48.67
32456;BME280;18912;43.270;27.942;2023-04-01T00:43:41;97322.56;;;17.61;49.29
32456;BME280;18912;43.270;27.942;2023-04-01T00:46:07;97318.22;;;17.55;48.97
32456;BME280;18912;43.270;27.942;2023-04-01T00:48:34;97311.91;;;17.54;49.17
32456;BME280;18912;43.270;27.942;2023-04-01T00:51:07;97304.56;;;17.90;48.20
32456;BME280;18912;43.270;27.942;2023-04-01T00:53:39;97305.13;;;17.72;48.74
32456;BME280;18912;43.270;27.942;2023-04-01T00:56:18;97300.16;;;17.54;48.92
32456;BME280;18912;43.270;27.942;2023-04-01T00:58:54;97304.00;;;17.93;48.09
32456;BME280;18912;43.270;27.942;2023-04-01T01:01:23;97294.47;;;17.91;48.17
32456;BME280;18912;43.270;27.942;2023-04-01T01:03:49;97292.81;;;18.15;47.68
32456;BME280;18912;43.270;27.942;2023-04-01T01:09:07;97295.28;;;17.81;48.60
32456;BME280;18912;43.270;27.942;2023-04-01T01:11:41;97290.31;;;17.63;48.87
32456;BME280;18912;43.270;27.942;2023-04-01T01:22:28;97285.41;;;17.65;49.05
32456;BME280;18912;43.270;27.942;2023-04-01T01:28:45;97279.16;;;17.95;48.29
32456;BME280;18912;43.270;27.942;2023-04-01T01:30:51;97257.78;;;17.41;49.43
32456;BME280;18912;43.270;27.942;2023-04-01T01:35:59;97272.00;;;17.43;49.78
32456;BME280;18912;43.270;27.942;2023-04-01T01:38:29;97268.13;;;17.24;50.43
32456;BME280;18912;43.270;27.942;2023-04-01T01:40:57;97270.94;;;17.59;49.27
32456;BME280;18912;43.270;27.942;2023-04-01T01:43:36;97275.59;;;17.64;48.79
32456;BME280;18912;43.270;27.942;2023-04-01T01:46:10;97270.41;;;17.67;49.12
32456;BME280;18912;43.270;27.942;2023-04-01T01:48:37;97272.03;;;17.68;49.06
32456;BME280;18912;43.270;27.942;2023-04-01T01:51:08;97270.66;;;17.86;48.47
32456;BME280;18912;43.270;27.942;2023-04-01T01:53:34;97265.13;;;17.31;50.02
32456;BME280;18912;43.270;27.942;2023-04-01T01:55:59;97286.72;;;17.42;49.91
32456;BME280;18912;43.270;27.942;2023-04-01T01:58:56;97280.97;;;17.34;50.03
32456;BME280;18912;43.270;27.942;2023-04-01T02:01:26;97287.59;;;17.58;49.60
32456;BME280;18912;43.270;27.942;2023-04-01T02:03:53;97276.13;;;17.56;49.62
32456;BME280;18912;43.270;27.942;2023-04-01T02:06:23;97278.31;;;17.64;49.12
32456;BME280;18912;43.270;27.942;2023-04-01T02:08:55;97279.97;;;17.75;49.24
32456;BME280;18912;43.270;27.942;2023-04-01T02:11:32;97273.38;;;17.61;49.10
32456;BME280;18912;43.270;27.942;2023-04-01T02:19:27;97265.13;;;17.26;50.45
32456;BME280;18912;43.270;27.942;2023-04-01T02:22:00;97260.00;;;17.54;49.49
32456;BME280;18912;43.270;27.942;2023-04-01T02:24:28;97257.53;;;17.88;48.61
32456;BME280;18912;43.270;27.942;2023-04-01T02:26:55;97257.28;;;17.95;48.57
32456;BME280;18912;43.270;27.942;2023-04-01T02:29:23;97250.16;;;18.04;48.19
32456;BME280;18912;43.270;27.942;2023-04-01T02:31:51;97248.25;;;17.79;48.88
32456;BME280;18912;43.270;27.942;2023-04-01T02:34:19;97250.44;;;17.67;49.06
32456;BME280;18912;43.270;27.942;2023-04-01T02:36:45;97245.47;;;17.44;49.42
32456;BME280;18912;43.270;27.942;2023-04-01T02:39:13;97253.72;;;17.59;49.24
32456;BME280;18912;43.270;27.942;2023-04-01T02:41:43;97249.28;;;17.23;49.87
32456;BME280;18912;43.270;27.942;2023-04-01T02:44:10;97238.69;;;17.61;48.86
32456;BME280;18912;43.270;27.942;2023-04-01T02:46:36;97230.22;;;17.68;48.83
32456;BME280;18912;43.270;27.942;2023-04-01T02:49:02;97240.31;;;18.18;47.74
32456;BME280;18912;43.270;27.942;2023-04-01T02:51:28;97218.38;;;18.33;47.19
32456;BME280;18912;43.270;27.942;2023-04-01T02:53:53;97215.91;;;18.31;47.21
32456;BME280;18912;43.270;27.942;2023-04-01T02:56:18;97218.16;;;17.99;47.30
32456;BME280;18912;43.270;27.942;2023-04-01T02:58:45;97209.69;;;17.86;47.52
32456;BME280;18912;43.270;27.942;2023-04-01T03:01:11;97212.16;;;17.97;47.14
32456;BME280;18912;43.270;27.942;2023-04-01T03:03:37;97201.72;;;18.24;46.60
32456;BME280;18912;43.270;27.942;2023-04-01T03:06:10;97196.22;;;18.29;46.50
32456;BME280;18912;43.270;27.942;2023-04-01T03:08:37;97194.56;;;18.33;46.39
32456;BME280;18912;43.270;27.942;2023-04-01T03:11:03;97196.81;;;18.21;45.98
32456;BME280;18912;43.270;27.942;2023-04-01T03:13:28;97194.91;;;18.07;45.87
32456;BME280;18912;43.270;27.942;2023-04-01T03:15:54;97200.97;;;17.73;46.66
32456;BME280;18912;43.270;27.942;2023-04-01T03:18:20;97202.34;;;17.61;46.34
32456;BME280;18912;43.270;27.942;2023-04-01T03:20:45;97194.69;;;17.48;46.13
32456;BME280;18912;43.270;27.942;2023-04-01T03:23:11;97179.66;;;17.30;46.29
32456;BME280;18912;43.270;27.942;2023-04-01T03:25:36;97193.22;;;17.00;46.77
32456;BME280;18912;43.270;27.942;2023-04-01T03:28:02;97185.84;;;16.86;47.17
32456;BME280;18912;43.270;27.942;2023-04-01T03:30:28;97183.03;;;16.60;47.50
32456;BME280;18912;43.270;27.942;2023-04-01T03:32:56;97172.00;;;16.35;47.90
32456;BME280;18912;43.270;27.942;2023-04-01T03:35:22;97179.59;;;16.23;48.00
32456;BME280;18912;43.270;27.942;2023-04-01T03:37:48;97170.84;;;16.16;48.15
32456;BME280;18912;43.270;27.942;2023-04-01T03:40:15;97171.81;;;15.58;49.38
32456;BME280;18912;43.270;27.942;2023-04-01T03:42:40;97171.88;;;15.37;50.04
32456;BME280;18912;43.270;27.942;2023-04-01T03:45:06;97170.50;;;15.61;49.56
32456;BME280;18912;43.270;27.942;2023-04-01T03:47:32;97167.47;;;15.57;49.63
32456;BME280;18912;43.270;27.942;2023-04-01T03:49:57;97166.09;;;15.60;49.34
32456;BME280;18912;43.270;27.942;2023-04-01T03:52:23;97163.06;;;15.51;49.87
32456;BME280;18912;43.270;27.942;2023-04-01T03:54:48;97174.06;;;15.35;50.64
32456;BME280;18912;43.270;27.942;2023-04-01T03:57:14;97167.66;;;15.46;50.75
32456;BME280;18912;43.270;27.942;2023-04-01T03:59:39;97162.25;;;15.56;50.85
32456;BME280;18912;43.270;27.942;2023-04-01T04:02:05;97173.22;;;15.61;51.44
32456;BME280;18912;43.270;27.942;2023-04-01T04:04:30;97170.88;;;15.79;50.85
32456;BME280;18912;43.270;27.942;2023-04-01T04:06:56;97165.59;;;15.63;52.29
32456;BME280;18912;43.270;27.942;2023-04-01T04:09:22;97171.72;;;15.85;51.91
32456;BME280;18912;43.270;27.942;2023-04-01T04:11:48;97171.81;;;15.95;52.39
32456;BME280;18912;43.270;27.942;2023-04-01T04:14:14;97170.81;;;15.69;54.46
32456;BME280;18912;43.270;27.942;2023-04-01T04:16:39;97173.28;;;16.13;53.85
32456;BME280;18912;43.270;27.942;2023-04-01T04:19:05;97164.75;;;16.04;54.82
32456;BME280;18912;43.270;27.942;2023-04-01T04:21:30;97153.41;;;15.70;55.37
32456;BME280;18912;43.270;27.942;2023-04-01T04:23:56;97159.81;;;15.96;55.44
32456;BME280;18912;43.270;27.942;2023-04-01T04:26:21;97142.69;;;15.59;56.47
32456;BME280;18912;43.270;27.942;2023-04-01T04:28:47;97148.88;;;15.86;55.73
32456;BME280;18912;43.270;27.942;2023-04-01T04:31:18;97144.56;;;15.95;55.71
32456;BME280;18912;43.270;27.942;2023-04-01T04:33:45;97143.28;;;16.18;54.97
32456;BME280;18912;43.270;27.942;2023-04-01T04:36:10;97148.47;;;16.14;54.71
32456;BME280;18912;43.270;27.942;2023-04-01T04:38:35;97147.31;;;16.05;55.17
32456;BME280;18912;43.270;27.942;2023-04-01T04:41:01;97140.91;;;16.31;54.64
32456;BME280;18912;43.270;27.942;2023-04-01T04:43:26;97136.50;;;16.20;55.26
32456;BME280;18912;43.270;27.942;2023-04-01T04:45:52;97139.81;;;16.32;54.73
32456;BME280;18912;43.270;27.942;2023-04-01T04:48:17;97136.56;;;16.40;54.79
32456;BME280;18912;43.270;27.942;2023-04-01T04:50:47;97141.97;;;16.25;55.04
32456;BME280;18912;43.270;27.942;2023-04-01T04:53:14;97131.81;;;16.88;53.59
32456;BME280;18912;43.270;27.942;2023-04-01T04:55:47;97141.59;;;16.68;54.09
32456;BME280;18912;43.270;27.942;2023-04-01T04:58:14;97138.03;;;16.68;54.05
32456;BME280;18912;43.270;27.942;2023-04-01T05:00:39;97132.66;;;17.08;53.18
32456;BME280;18912;43.270;27.942;2023-04-01T05:03:05;97124.72;;;17.07;53.48
32456;BME280;18912;43.270;27.942;2023-04-01T05:05:31;97120.88;;;16.77;53.63
32456;BME280;18912;43.270;27.942;2023-04-01T05:07:57;97129.09;;;17.08;53.08
32456;BME280;18912;43.270;27.942;2023-04-01T05:10:22;97128.81;;;17.04;53.41
32456;BME280;18912;43.270;27.942;2023-04-01T05:12:48;97124.19;;;17.20;52.26
32456;BME280;18912;43.270;27.942;2023-04-01T05:15:13;97129.84;;;16.68;53.86
32456;BME280;18912;43.270;27.942;2023-04-01T05:17:40;97131.22;;;16.75;54.07
32456;BME280;18912;43.270;27.942;2023-04-01T05:20:06;97118.38;;;16.56;54.53
32456;BME280;18912;43.270;27.942;2023-04-01T05:22:32;97114.34;;;16.89;53.51
32456;BME280;18912;43.270;27.942;2023-04-01T05:24:57;97121.41;;;16.79;54.08
32456;BME280;18912;43.270;27.942;2023-04-01T05:27:23;97120.88;;;16.67;53.88
32456;BME280;18912;43.270;27.942;2023-04-01T05:29:48;97114.84;;;16.75;53.48
32456;BME280;18912;43.270;27.942;2023-04-01T05:32:14;97118.16;;;16.83;53.73
32456;BME280;18912;43.270;27.942;2023-04-01T05:34:40;97104.66;;;16.41;54.78
32456;BME280;18912;43.270;27.942;2023-04-01T05:37:05;97099.06;;;16.88;54.04
32456;BME280;18912;43.270;27.942;2023-04-01T05:39:35;97110.22;;;16.71;54.03
32456;BME280;18912;43.270;27.942;2023-04-01T05:42:00;97115.69;;;16.71;55.06
32456;BME280;18912;43.270;27.942;2023-04-01T05:44:26;97107.53;;;17.21;53.72
32456;BME280;18912;43.270;27.942;2023-04-01T05:46:51;97102.34;;;17.05;53.73
32456;BME280;18912;43.270;27.942;2023-04-01T05:49:17;97097.69;;;17.00;53.50
32456;BME280;18912;43.270;27.942;2023-04-01T05:51:42;97094.69;;;17.52;52.54
32456;BME280;18912;43.270;27.942;2023-04-01T05:54:08;97088.41;;;17.31;52.81
32456;BME280;18912;43.270;27.942;2023-04-01T05:56:33;97094.97;;;17.45;52.66
32456;BME280;18912;43.270;27.942;2023-04-01T05:58:59;97091.31;;;18.00;51.97
32456;BME280;18912;43.270;27.942;2023-04-01T06:01:24;97081.00;;;17.77;52.02
32456;BME280;18912;43.270;27.942;2023-04-01T06:03:50;97086.97;;;17.84;52.76
32456;BME280;18912;43.270;27.942;2023-04-01T06:06:28;97082.19;;;18.25;51.55
32456;BME280;18912;43.270;27.942;2023-04-01T06:08:57;97078.22;;;17.92;51.96
32456;BME280;18912;43.270;27.942;2023-04-01T06:30:44;97089.06;;;18.12;51.70
32456;BME280;18912;43.270;27.942;2023-04-01T06:41:32;97062.88;;;17.96;52.91
32456;BME280;18912;43.270;27.942;2023-04-01T06:52:19;97063.25;;;18.43;51.88
32456;BME280;18912;43.270;27.942;2023-04-01T06:55:03;97053.13;;;18.44;51.92
32456;BME280;18912;43.270;27.942;2023-04-01T06:57:47;97050.78;;;19.05;51.25
32456;BME280;18912;43.270;27.942;2023-04-01T07:02:54;97051.66;;;18.95;51.06
32456;BME280;18912;43.270;27.942;2023-04-01T07:05:24;97058.22;;;18.94;50.65
32456;BME280;18912;43.270;27.942;2023-04-01T07:07:58;97067.59;;;19.22;50.05
32456;BME280;18912;43.270;27.942;2023-04-01T07:13:29;97077.75;;;19.21;49.89
32456;BME280;18912;43.270;27.942;2023-04-01T07:18:41;97073.41;;;20.01;48.77
32456;BME280;18912;43.270;27.942;2023-04-01T07:23:59;97061.44;;;19.40;50.11
32456;BME280;18912;43.270;27.942;2023-04-01T07:26:27;97064.59;;;19.81;49.37
32456;BME280;18912;43.270;27.942;2023-04-01T07:28:53;97054.56;;;19.71;49.15
32456;BME280;18912;43.270;27.942;2023-04-01T07:34:09;97056.53;;;19.37;50.54
32456;BME280;18912;43.270;27.942;2023-04-01T07:37:10;97054.16;;;18.92;50.66
32456;BME280;18912;43.270;27.942;2023-04-01T07:45:43;97053.81;;;19.32;50.19
32456;BME280;18912;43.270;27.942;2023-04-01T07:51:03;97051.13;;;19.84;49.40
32456;BME280;18912;43.270;27.942;2023-04-01T07:53:36;97039.03;;;19.33;50.02
32456;BME280;18912;43.270;27.942;2023-04-01T07:56:22;97028.13;;;19.23;50.58
32456;BME280;18912;43.270;27.942;2023-04-01T08:01:52;97031.19;;;18.88;51.78
32456;BME280;18912;43.270;27.942;2023-04-01T08:04:23;97028.69;;;18.91;51.97
32456;BME280;18912;43.270;27.942;2023-04-01T08:07:10;97031.53;;;19.43;51.10
32456;BME280;18912;43.270;27.942;2023-04-01T08:09:54;97036.66;;;19.79;50.19
32456;BME280;18912;43.270;27.942;2023-04-01T08:12:31;97017.94;;;20.04;49.49
32456;BME280;18912;43.270;27.942;2023-04-01T08:15:23;97016.97;;;19.95;48.92
32456;BME280;18912;43.270;27.942;2023-04-01T08:20:52;97017.44;;;21.00;47.50
32456;BME280;18912;43.270;27.942;2023-04-01T08:23:49;97010.75;;;21.06;47.26
32456;BME280;18912;43.270;27.942;2023-04-01T08:28:54;96993.13;;;21.07;46.93
32456;BME280;18912;43.270;27.942;2023-04-01T08:31:40;96998.22;;;20.44;47.50
32456;BME280;18912;43.270;27.942;2023-04-01T08:34:20;96985.72;;;20.71;47.64
32456;BME280;18912;43.270;27.942;2023-04-01T08:36:52;96990.44;;;20.70;47.29
32456;BME280;18912;43.270;27.942;2023-04-01T08:42:05;96997.47;;;20.58;47.52
32456;BME280;18912;43.270;27.942;2023-04-01T08:44:59;96999.97;;;21.10;46.89
32456;BME280;18912;43.270;27.942;2023-04-01T08:47:54;96987.91;;;21.38;46.05
32456;BME280;18912;43.270;27.942;2023-04-01T08:50:31;97001.00;;;22.00;45.14
32456;BME280;18912;43.270;27.942;2023-04-01T08:56:17;96991.53;;;21.20;46.25
32456;BME280;18912;43.270;27.942;2023-04-01T09:19:29;96977.38;;;22.49;43.12
32456;BME280;18912;43.270;27.942;2023-04-01T09:22:13;96973.28;;;22.10;44.28
32456;BME280;18912;43.270;27.942;2023-04-01T09:35:55;96962.22;;;22.95;42.88
32456;BME280;18912;43.270;27.942;2023-04-01T09:39:04;96964.63;;;23.41;42.20
32456;BME280;18912;43.270;27.942;2023-04-01T09:44:23;96954.56;;;22.70;43.32
32456;BME280;18912;43.270;27.942;2023-04-01T09:55:06;96928.88;;;22.39;43.31
32456;BME280;18912;43.270;27.942;2023-04-01T10:01:00;96920.84;;;23.40;42.72
32456;BME280;18912;43.270;27.942;2023-04-01T10:39:27;96890.75;;;24.76;40.40
32456;BME280;18912;43.270;27.942;2023-04-01T10:56:49;96873.19;;;24.38;40.22
32456;BME280;18912;43.270;27.942;2023-04-01T11:25:11;96827.00;;;24.81;39.33
32456;BME280;18912;43.270;27.942;2023-04-01T11:30:33;96815.56;;;24.02;40.31
32456;BME280;18912;43.270;27.942;2023-04-01T11:33:18;96824.31;;;24.22;40.67
32456;BME280;18912;43.270;27.942;2023-04-01T11:38:38;96816.69;;;24.27;40.77
32456;BME280;18912;43.270;27.942;2023-04-01T11:44:25;96809.84;;;24.25;41.09
32456;BME280;18912;43.270;27.942;2023-04-01T12:06:28;96786.06;;;24.66;40.31
32456;BME280;18912;43.270;27.942;2023-04-01T12:12:13;96792.81;;;25.32;39.99
32456;BME280;18912;43.270;27.942;2023-04-01T12:15:05;96786.28;;;25.45;39.85
32456;BME280;18912;43.270;27.942;2023-04-01T12:17:46;96789.56;;;25.01;40.02
32456;BME280;18912;43.270;27.942;2023-04-01T12:20:33;96788.34;;;24.64;39.98
32456;BME280;18912;43.270;27.942;2023-04-01T12:39:44;96783.97;;;25.18;39.06
32456;BME280;18912;43.270;27.942;2023-04-01T12:51:23;96779.31;;;24.38;43.97
32456;BME280;18912;43.270;27.942;2023-04-01T12:57:07;96780.59;;;23.64;44.22
32456;BME280;18912;43.270;27.942;2023-04-01T13:11:42;96767.75;;;24.53;44.01
32456;BME280;18912;43.270;27.942;2023-04-01T13:14:48;96741.13;;;24.95;44.32
32456;BME280;18912;43.270;27.942;2023-04-01T13:20:11;96745.63;;;24.62;46.31
32456;BME280;18912;43.270;27.942;2023-04-01T13:25:37;96732.78;;;24.74;45.18
32456;BME280;18912;43.270;27.942;2023-04-01T13:28:39;96741.53;;;24.76;44.75
32456;BME280;18912;43.270;27.942;2023-04-01T13:41:54;96743.50;;;24.59;44.05
32456;BME280;18912;43.270;27.942;2023-04-01T13:44:34;96729.00;;;24.70;43.06
32456;BME280;18912;43.270;27.942;2023-04-01T13:56:14;96709.03;;;24.10;42.83
32456;BME280;18912;43.270;27.942;2023-04-01T13:59:02;96719.06;;;24.86;42.15
32456;BME280;18912;43.270;27.942;2023-04-01T14:06:58;96707.22;;;24.31;42.52
32456;BME280;18912;43.270;27.942;2023-04-01T14:12:01;96706.06;;;24.32;43.13
32456;BME280;18912;43.270;27.942;2023-04-01T14:15:15;96711.31;;;24.71;42.35
32456;BME280;18912;43.270;27.942;2023-04-01T14:20:29;96709.91;;;23.11;46.11
32456;BME280;18912;43.270;27.942;2023-04-01T14:30:54;96731.47;;;22.70;47.05
32456;BME280;18912;43.270;27.942;2023-04-01T14:33:41;96727.38;;;22.06;47.85
32456;BME280;18912;43.270;27.942;2023-04-01T14:36:42;96715.47;;;22.19;48.25
32456;BME280;18912;43.270;27.942;2023-04-01T14:39:58;96707.09;;;22.24;47.82
32456;BME280;18912;43.270;27.942;2023-04-01T14:48:26;96708.56;;;22.00;48.45
32456;BME280;18912;43.270;27.942;2023-04-01T14:50:55;96706.84;;;21.68;49.02
32456;BME280;18912;43.270;27.942;2023-04-01T14:55:57;96698.22;;;22.27;47.94
32456;BME280;18912;43.270;27.942;2023-04-01T14:58:39;96675.59;;;21.42;49.41
32456;BME280;18912;43.270;27.942;2023-04-01T15:06:28;96657.84;;;21.12;50.39
32456;BME280;18912;43.270;27.942;2023-04-01T15:21:18;96647.94;;;20.62;52.51
32456;BME280;18912;43.270;27.942;2023-04-01T15:27:13;96635.91;;;20.85;51.79
32456;BME280;18912;43.270;27.942;2023-04-01T15:37:58;96644.84;;;21.62;49.53
32456;BME280;18912;43.270;27.942;2023-04-01T15:45:47;96631.03;;;21.54;49.34
32456;BME280;18912;43.270;27.942;2023-04-01T15:50:48;96622.09;;;21.70;49.15
32456;BME280;18912;43.270;27.942;2023-04-01T17:09:29;96652.31;;;20.50;53.07
32456;BME280;18912;43.270;27.942;2023-04-01T17:14:52;96646.84;;;20.50;52.71
32456;BME280;18912;43.270;27.942;2023-04-01T17:20:14;96645.00;;;20.59;52.40
32456;BME280;18912;43.270;27.942;2023-04-01T17:25:35;96638.06;;;20.75;51.51
32456;BME280;18912;43.270;27.942;2023-04-01T17:33:47;96629.91;;;20.97;51.55
32456;BME280;18912;43.270;27.942;2023-04-01T17:41:59;96622.63;;;21.50;50.25
32456;BME280;18912;43.270;27.942;2023-04-01T17:47:13;96621.19;;;20.13;53.49
32456;BME280;18912;43.270;27.942;2023-04-01T17:49:45;96618.16;;;20.28;53.34
32456;BME280;18912;43.270;27.942;2023-04-01T18:06:06;96638.69;;;20.31;53.78
32456;BME280;18912;43.270;27.942;2023-04-01T18:22:22;96597.19;;;19.46;56.28
32456;BME280;18912;43.270;27.942;2023-04-01T18:30:32;96593.22;;;18.64;59.04
32456;BME280;18912;43.270;27.942;2023-04-01T18:33:18;96603.91;;;18.42;60.39
32456;BME280;18912;43.270;27.942;2023-04-01T18:38:40;96596.06;;;18.54;60.98
32456;BME280;18912;43.270;27.942;2023-04-01T18:49:41;96610.59;;;18.31;62.06
32456;BME280;18912;43.270;27.942;2023-04-01T19:00:36;96629.34;;;18.42;61.61
32456;BME280;18912;43.270;27.942;2023-04-01T19:03:34;96640.31;;;18.42;61.40
32456;BME280;18912;43.270;27.942;2023-04-01T19:06:00;96657.75;;;17.65;63.18
32456;BME280;18912;43.270;27.942;2023-04-01T19:08:40;96657.09;;;17.45;64.74
32456;BME280;18912;43.270;27.942;2023-04-01T19:21:33;96640.59;;;17.89;62.92
32456;BME280;18912;43.270;27.942;2023-04-01T19:24:25;96657.84;;;16.73;67.79
32456;BME280;18912;43.270;27.942;2023-04-01T19:27:06;96629.03;;;17.34;66.24
32456;BME280;18912;43.270;27.942;2023-04-01T19:35:09;96642.97;;;16.50;71.99
32456;BME280;18912;43.270;27.942;2023-04-01T19:37:40;96650.91;;;16.91;70.99
32456;BME280;18912;43.270;27.942;2023-04-01T19:50:53;96666.53;;;16.80;72.56
32456;BME280;18912;43.270;27.942;2023-04-01T19:56:16;96677.59;;;17.04;71.90
32456;BME280;18912;43.270;27.942;2023-04-01T20:01:44;96672.00;;;17.91;66.43
32456;BME280;18912;43.270;27.942;2023-04-01T20:04:17;96657.63;;;17.42;67.04
32456;BME280;18912;43.270;27.942;2023-04-01T20:14:46;96679.47;;;17.47;64.84
32456;BME280;18912;43.270;27.942;2023-04-01T20:25:15;96677.50;;;17.14;66.79
32456;BME280;18912;43.270;27.942;2023-04-01T20:27:54;96684.53;;;17.25;67.19
32456;BME280;18912;43.270;27.942;2023-04-01T20:36:21;96687.34;;;17.10;66.46
32456;BME280;18912;43.270;27.942;2023-04-01T20:39:02;96691.16;;;17.19;66.32
32456;BME280;18912;43.270;27.942;2023-04-01T20:53:15;96681.66;;;17.45;63.28
32456;BME280;18912;43.270;27.942;2023-04-01T20:58:49;96680.66;;;17.36;62.92
32456;BME280;18912;43.270;27.942;2023-04-01T21:12:14;96705.81;;;17.28;62.89
32456;BME280;18912;43.270;27.942;2023-04-01T21:17:29;96709.28;;;17.43;62.12
32456;BME280;18912;43.270;27.942;2023-04-01T21:25:29;96733.81;;;17.87;59.46
32456;BME280;18912;43.270;27.942;2023-04-01T21:37:26;96758.31;;;17.63;59.08
32456;BME280;18912;43.270;27.942;2023-04-01T21:40:18;96755.72;;;16.90;62.34
32456;BME280;18912;43.270;27.942;2023-04-01T22:05:42;96781.47;;;16.43;68.88
32456;BME280;18912;43.270;27.942;2023-04-01T22:13:35;96786.09;;;17.27;65.05
32456;BME280;18912;43.270;27.942;2023-04-01T22:16:20;96786.09;;;17.27;65.02
32456;BME280;18912;43.270;27.942;2023-04-01T22:18:58;96784.66;;;17.49;64.02
32456;BME280;18912;43.270;27.942;2023-04-01T22:21:32;96792.72;;;17.16;64.53
32456;BME280;18912;43.270;27.942;2023-04-01T22:24:16;96803.56;;;17.31;64.25
32456;BME280;18912;43.270;27.942;2023-04-01T22:27:03;96805.09;;;16.98;65.74
32456;BME280;18912;43.270;27.942;2023-04-01T22:32:19;96803.97;;;17.04;65.89
32456;BME280;18912;43.270;27.942;2023-04-01T22:34:57;96811.50;;;16.28;69.02
32456;BME280;18912;43.270;27.942;2023-04-01T22:37:54;96811.66;;;16.92;66.95
32456;BME280;18912;43.270;27.942;2023-04-01T22:40:39;96810.94;;;16.51;67.76
32456;BME280;18912;43.270;27.942;2023-04-01T22:43:16;96820.47;;;16.44;67.91
32456;BME280;18912;43.270;27.942;2023-04-01T22:48:46;96817.97;;;16.83;66.28
32456;BME280;18912;43.270;27.942;2023-04-01T22:56:16;96815.25;;;16.83;65.86
32456;BME280;18912;43.270;27.942;2023-04-01T22:58:56;96814.50;;;16.37;68.10
32456;BME280;18912;43.270;27.942;2023-04-01T23:01:29;96819.66;;;16.38;67.79
32456;BME280;18912;43.270;27.942;2023-04-01T23:03:58;96831.13;;;16.65;67.00
32456;BME280;18912;43.270;27.942;2023-04-01T23:06:29;96828.97;;;16.12;69.33
32456;BME280;18912;43.270;27.942;2023-04-01T23:11:30;96828.09;;;15.56;72.38
32456;BME280;18912;43.270;27.942;2023-04-01T23:17:09;96817.50;;;16.40;68.98
32456;BME280;18912;43.270;27.942;2023-04-01T23:25:13;96822.41;;;16.33;65.85
32456;BME280;18912;43.270;27.942;2023-04-01T23:33:28;96833.25;;;15.53;66.51
32456;BME280;18912;43.270;27.942;2023-04-01T23:36:11;96827.63;;;15.02;66.54
32456;BME280;18912;43.270;27.942;2023-04-01T23:38:41;96827.16;;;15.26;64.44
32456;BME280;18912;43.270;27.942;2023-04-01T23:41:08;96818.47;;;15.29;63.20
32456;BME280;18912;43.270;27.942;2023-04-01T23:43:39;96816.59;;;14.67;63.82
32456;BME280;18912;43.270;27.942;2023-04-01T23:46:07;96825.00;;;14.66;64.53
32456;BME280;18912;43.270;27.942;2023-04-01T23:48:34;96818.22;;;14.68;64.54
32456;BME280;18912;43.270;27.942;2023-04-01T23:51:00;96825.88;;;14.76;63.46
32456;BME280;18912;43.270;27.942;2023-04-01T23:53:31;96822.06;;;14.31;63.93
32456;BME280;18912;43.270;27.942;2023-04-01T23:55:58;96832.03;;;14.57;62.76
32456;BME280;18912;43.270;27.942;2023-04-01T23:58:26;96836.81;;;14.81;61.88
